Time;durP1;ratioP1;P1;durP2;ratioP2;P2;SDS_P1;SDS_P2;PMS_P1;PMS_P2;Temp;Humidity;BMP_temperature;BMP_pressure;BME280_temperature;BME280_humidity;BME280_pressure;Samples;Min_cycle;Max_cycle;Signal;HPM_P1;HPM_P2
2022/07/24 00:01:58;;;;;;;6.18;5.68;;;;;;;21.55;61.29;98910.22;4175253;28;20235;-56
2022/07/24 00:04:02;;;;;;;5.97;5.45;;;;;;;21.48;61.30;98915.38;4173674;28;20576;-54
2022/07/24 00:06:04;;;;;;;4.93;4.60;;;;;;;21.44;61.39;98908.81;4169791;28;20222;-56
2022/07/24 00:08:06;;;;;;;6.47;5.93;;;;;;;21.43;61.53;98909.94;4167695;28;20454;-57
2022/07/24 00:10:08;;;;;;;6.65;5.13;;;;;;;21.37;61.41;98908.41;4168505;28;20775;-57
2022/07/24 00:12:10;;;;;;;5.93;5.43;;;;;;;21.34;61.44;98914.56;4168681;28;20220;-54
2022/07/24 00:14:12;;;;;;;5.82;5.40;;;;;;;21.28;61.50;98915.81;4172912;28;20211;-56
2022/07/24 00:16:13;;;;;;;5.55;5.07;;;;;;;21.27;61.58;98912.22;4171088;28;20247;-56
2022/07/24 00:18:15;;;;;;;5.65;5.20;;;;;;;21.26;61.62;98918.94;4169961;28;20317;-55
2022/07/24 00:20:17;;;;;;;4.97;4.45;;;;;;;21.23;61.51;98908.38;4172811;28;20228;-56
2022/07/24 00:22:19;;;;;;;5.85;5.40;;;;;;;21.20;61.40;98919.31;4174600;28;20238;-54
2022/07/24 00:24:20;;;;;;;5.60;5.28;;;;;;;21.13;61.60;98918.91;4170033;28;20689;-53
2022/07/24 00:26:22;;;;;;;5.63;5.13;;;;;;;21.08;61.75;98919.00;4170177;28;20212;-55
2022/07/24 00:28:24;;;;;;;6.05;5.55;;;;;;;21.09;61.68;98917.88;4173562;28;20207;-55
2022/07/24 00:30:26;;;;;;;6.18;5.63;;;;;;;21.01;61.68;98921.38;4171987;28;20276;-57
2022/07/24 00:32:27;;;;;;;5.65;5.18;;;;;;;20.99;62.01;98918.06;4175218;28;20227;-55
2022/07/24 00:34:29;;;;;;;5.40;5.00;;;;;;;20.95;61.79;98917.88;4185545;28;20199;-54
2022/07/24 00:36:31;;;;;;;5.60;5.10;;;;;;;20.93;61.56;98908.16;4176859;28;20200;-55
2022/07/24 00:38:32;;;;;;;4.95;4.65;;;;;;;20.93;61.52;98913.75;4170092;28;20208;-54
2022/07/24 00:40:34;;;;;;;5.75;5.25;;;;;;;20.94;61.95;98910.66;4170544;28;20274;-55
2022/07/24 00:42:36;;;;;;;10.52;5.03;;;;;;;20.93;61.75;98916.53;4171345;28;20203;-54
2022/07/24 00:44:37;;;;;;;5.97;5.47;;;;;;;20.91;61.84;98916.00;4157327;28;20236;-55
2022/07/24 00:46:42;;;;;;;6.05;5.38;;;;;;;20.92;61.76;98917.66;4171160;28;20199;-55
2022/07/24 00:48:44;;;;;;;5.78;4.93;;;;;;;20.91;62.27;98916.00;4175397;28;20207;-54
2022/07/24 00:50:46;;;;;;;5.45;5.05;;;;;;;20.90;62.26;98911.59;4170284;28;20232;-55
2022/07/24 00:52:48;;;;;;;6.38;5.95;;;;;;;20.87;62.74;98914.94;4188182;28;20227;-55
2022/07/24 00:54:50;;;;;;;5.63;5.28;;;;;;;20.83;62.98;98913.88;4173770;28;20265;-55
2022/07/24 00:56:53;;;;;;;6.45;5.53;;;;;;;20.82;63.38;98906.66;4175307;28;20208;-54
2022/07/24 00:58:55;;;;;;;6.18;5.72;;;;;;;20.78;63.78;98906.47;4170579;28;20207;-55
2022/07/24 01:00:57;;;;;;;6.03;5.53;;;;;;;20.77;63.50;98910.38;4168412;28;20230;-55
2022/07/24 01:02:58;;;;;;;5.68;5.28;;;;;;;20.77;63.90;98909.56;4167625;28;20196;-56
2022/07/24 01:05:00;;;;;;;7.47;5.78;;;;;;;20.76;63.92;98907.88;4170449;28;20219;-55
2022/07/24 01:07:02;;;;;;;6.68;4.75;;;;;;;20.77;63.75;98909.56;4176108;28;20238;-56
2022/07/24 01:09:04;;;;;;;5.72;5.25;;;;;;;20.76;64.05;98905.09;4186087;28;20206;-55
2022/07/24 01:11:07;;;;;;;5.90;5.50;;;;;;;20.72;63.97;98913.25;4171324;28;20270;-54
2022/07/24 01:13:09;;;;;;;5.45;5.05;;;;;;;20.71;63.96;98910.78;4158676;28;20200;-56
2022/07/24 01:15:11;;;;;;;5.43;4.93;;;;;;;20.67;64.02;98907.78;4173534;28;20262;-54
2022/07/24 01:17:13;;;;;;;5.35;5.05;;;;;;;20.64;64.02;98911.16;4171976;28;20200;-56
2022/07/24 01:19:15;;;;;;;6.03;5.63;;;;;;;20.61;64.02;98916.53;4175700;28;20242;-56
2022/07/24 01:21:17;;;;;;;5.10;4.72;;;;;;;20.59;64.05;98907.66;4176279;28;20671;-54
2022/07/24 01:23:20;;;;;;;4.57;4.28;;;;;;;20.54;64.11;98910.53;4172129;28;20212;-55
2022/07/24 01:25:21;;;;;;;5.20;4.90;;;;;;;20.51;64.36;98911.16;4171456;28;20204;-55
2022/07/24 01:27:24;;;;;;;5.40;5.00;;;;;;;20.49;64.32;98918.94;4169856;28;20214;-56
2022/07/24 01:29:26;;;;;;;5.18;4.78;;;;;;;20.44;64.16;98910.72;4182999;28;20203;-57
2022/07/24 01:31:27;;;;;;;5.70;5.22;;;;;;;20.42;64.21;98911.00;4172364;28;20227;-56
2022/07/24 01:33:29;;;;;;;6.15;5.68;;;;;;;20.40;64.46;98916.06;4174253;28;20214;-57
2022/07/24 01:35:31;;;;;;;5.63;5.20;;;;;;;20.37;64.40;98916.66;4185955;28;20689;-55
2022/07/24 01:37:33;;;;;;;5.80;5.30;;;;;;;20.36;64.55;98919.72;4175044;28;20211;-55
2022/07/24 01:39:35;;;;;;;5.18;4.82;;;;;;;20.33;64.64;98917.56;4171900;28;20215;-54
2022/07/24 01:41:37;;;;;;;5.68;5.13;;;;;;;20.29;64.85;98919.28;4185788;28;20272;-56
2022/07/24 01:43:38;;;;;;;5.93;5.43;;;;;;;20.27;65.08;98921.56;4169800;28;20652;-56
2022/07/24 01:45:40;;;;;;;6.15;5.47;;;;;;;20.20;65.07;98910.84;4162513;28;20204;-56
2022/07/24 01:47:43;;;;;;;5.65;5.25;;;;;;;20.17;65.43;98905.06;4165189;28;20215;-57
2022/07/24 01:49:44;;;;;;;5.43;5.03;;;;;;;20.14;65.04;98913.97;4166985;28;20208;-55
2022/07/24 01:51:46;;;;;;;5.60;5.10;;;;;;;20.12;65.30;98910.69;4186330;28;20238;-56
2022/07/24 01:53:48;;;;;;;6.88;5.95;;;;;;;20.10;65.44;98910.19;4177482;28;20195;-55
2022/07/24 01:55:51;;;;;;;6.07;5.68;;;;;;;20.07;65.44;98922.72;4170765;28;20207;-57
2022/07/24 01:57:52;;;;;;;5.65;5.18;;;;;;;20.05;65.63;98910.22;4172377;28;20212;-55
2022/07/24 01:59:54;;;;;;;4.95;4.55;;;;;;;20.01;65.71;98917.50;4170134;28;20643;-55
2022/07/24 02:01:59;;;;;;;6.82;6.22;;;;;;;19.95;66.26;98913.97;4186076;28;20227;-54
2022/07/24 02:04:00;;;;;;;6.28;5.78;;;;;;;19.92;66.03;98916.53;4187195;28;20207;-55
2022/07/24 02:06:02;;;;;;;5.82;5.43;;;;;;;19.90;66.20;98916.00;4168991;28;20274;-55
2022/07/24 02:08:04;;;;;;;5.78;5.38;;;;;;;19.86;66.06;98910.19;4176978;28;20208;-56
2022/07/24 02:10:07;;;;;;;4.97;4.65;;;;;;;19.87;66.06;98905.47;4170143;28;20575;-55
2022/07/24 02:12:08;;;;;;;6.30;5.80;;;;;;;19.87;66.16;98902.69;4188214;28;20269;-55
2022/07/24 02:14:10;;;;;;;5.82;5.32;;;;;;;19.84;66.11;98900.53;4188670;28;20199;-54
2022/07/24 02:16:12;;;;;;;6.05;5.65;;;;;;;19.78;66.33;98907.28;4171026;28;20302;-55
2022/07/24 02:18:14;;;;;;;5.95;5.45;;;;;;;19.73;66.46;98907.34;4175567;28;20204;-57
2022/07/24 02:20:17;;;;;;;5.65;5.15;;;;;;;19.68;66.40;98912.97;4166212;28;20220;-53
2022/07/24 02:22:18;;;;;;;6.03;5.60;;;;;;;19.67;66.49;98911.34;4184856;28;20580;-56
2022/07/24 02:24:20;;;;;;;5.55;5.15;;;;;;;19.65;66.55;98908.03;4175255;28;20212;-56
2022/07/24 02:26:21;;;;;;;5.93;5.43;;;;;;;19.64;66.52;98912.75;4168707;28;20231;-53
2022/07/24 02:28:23;;;;;;;5.30;4.72;;;;;;;19.62;66.38;98914.16;4170305;28;20620;-55
2022/07/24 02:30:25;;;;;;;5.60;5.20;;;;;;;19.61;66.51;98920.84;4184345;28;20724;-54
2022/07/24 02:32:27;;;;;;;6.05;5.65;;;;;;;19.59;66.33;98914.78;4173712;28;20228;-55
2022/07/24 02:34:28;;;;;;;5.93;5.43;;;;;;;19.56;66.66;98920.91;4176822;28;20216;-54
2022/07/24 02:36:30;;;;;;;5.70;5.22;;;;;;;19.55;66.58;98919.28;4171608;28;20721;-55
2022/07/24 02:38:32;;;;;;;6.00;5.60;;;;;;;19.51;66.72;98924.59;4171830;28;20268;-57
2022/07/24 02:40:33;;;;;;;6.20;5.70;;;;;;;19.47;66.97;98920.78;4185106;28;20352;-54
2022/07/24 02:42:36;;;;;;;6.32;5.70;;;;;;;19.44;67.17;98917.78;4173890;28;20200;-58
2022/07/24 02:44:37;;;;;;;5.70;5.30;;;;;;;19.43;67.38;98921.66;4170080;28;20211;-54
2022/07/24 02:46:39;;;;;;;6.22;5.82;;;;;;;19.32;67.88;98925.69;4170928;28;20211;-54
2022/07/24 02:48:41;;;;;;;7.03;6.40;;;;;;;19.27;68.12;98928.53;4168051;28;20211;-55
2022/07/24 02:50:43;;;;;;;5.63;5.22;;;;;;;19.22;67.99;98926.63;4169309;28;20224;-54
2022/07/24 02:52:44;;;;;;;6.68;6.28;;;;;;;19.19;68.22;98929.97;4168669;28;20220;-55
2022/07/24 02:54:46;;;;;;;6.28;5.78;;;;;;;19.16;68.36;98932.50;4185391;28;21083;-54
2022/07/24 02:56:48;;;;;;;6.75;5.20;;;;;;;19.14;68.26;98926.44;4170179;28;20204;-54
2022/07/24 02:58:50;;;;;;;5.05;4.75;;;;;;;19.10;68.25;98928.13;4174847;28;20219;-53
2022/07/24 03:00:52;;;;;;;5.88;5.47;;;;;;;19.09;68.01;98920.94;4184913;28;20234;-55
2022/07/24 03:02:53;;;;;;;6.28;5.78;;;;;;;19.04;68.21;98923.78;4171350;28;20488;-54
2022/07/24 03:04:55;;;;;;;6.40;5.88;;;;;;;18.99;68.08;98921.06;4171168;28;20212;-55
2022/07/24 03:06:57;;;;;;;5.30;4.90;;;;;;;19.00;68.05;98928.25;4170240;28;20684;-56
2022/07/24 03:08:59;;;;;;;6.45;5.95;;;;;;;19.00;67.83;98928.25;4169160;28;20211;-57
2022/07/24 03:11:00;;;;;;;5.75;5.35;;;;;;;18.97;67.71;98923.31;4175209;28;20585;-56
2022/07/24 03:13:02;;;;;;;6.50;6.00;;;;;;;18.94;67.50;98924.72;4172005;28;20223;-54
2022/07/24 03:15:04;;;;;;;7.63;6.88;;;;;;;18.92;67.76;98915.03;4186593;28;20207;-55
2022/07/24 03:17:06;;;;;;;5.32;4.93;;;;;;;18.90;67.91;98917.25;4174950;28;20613;-55
2022/07/24 03:19:08;;;;;;;6.70;6.30;;;;;;;18.87;67.77;98917.84;4176747;28;20236;-55
2022/07/24 03:21:09;;;;;;;6.35;5.85;;;;;;;18.87;67.93;98926.19;4159414;28;20326;-55
2022/07/24 03:23:31;;;;;;;6.38;5.97;;;;;;;18.89;67.96;98926.69;4158786;28;20238;-54
2022/07/24 03:25:33;;;;;;;5.97;5.47;;;;;;;18.92;67.94;98924.16;4167778;28;20204;-55
2022/07/24 03:27:35;;;;;;;6.55;5.95;;;;;;;18.93;67.97;98933.31;4174574;28;21655;-56
2022/07/24 03:29:36;;;;;;;6.18;5.63;;;;;;;18.92;67.88;98926.13;4173599;28;20212;-57
2022/07/24 03:31:38;;;;;;;7.43;6.63;;;;;;;18.89;67.94;98921.16;4173422;28;20228;-57
2022/07/24 03:33:40;;;;;;;6.32;5.93;;;;;;;18.87;68.16;98923.41;4172088;28;20228;-54
2022/07/24 03:35:42;;;;;;;6.32;5.78;;;;;;;18.84;68.12;98919.25;4171199;28;20200;-53
2022/07/24 03:37:43;;;;;;;6.88;6.38;;;;;;;18.84;68.05;98919.25;4169282;28;20439;-55
2022/07/24 03:39:45;;;;;;;5.95;5.47;;;;;;;18.84;68.08;98919.25;4169845;28;20212;-56
2022/07/24 03:41:47;;;;;;;6.65;6.25;;;;;;;18.83;67.94;98922.31;4154550;28;20244;-55
2022/07/24 03:43:48;;;;;;;5.97;5.57;;;;;;;18.79;68.25;98922.09;4168657;28;20676;-55
2022/07/24 03:45:50;;;;;;;6.00;5.50;;;;;;;18.73;68.31;98923.25;4168277;28;20199;-55
2022/07/24 03:47:52;;;;;;;7.05;6.55;;;;;;;18.66;68.65;98922.78;4183803;28;20204;-55
2022/07/24 03:49:54;;;;;;;5.90;5.40;;;;;;;18.60;68.95;98923.13;4174862;28;20208;-54
2022/07/24 03:51:56;;;;;;;6.13;5.72;;;;;;;18.54;68.98;98929.84;4159375;28;20224;-56
2022/07/24 03:53:58;;;;;;;6.35;5.93;;;;;;;18.48;68.92;98925.44;4175793;28;20720;-54
2022/07/24 03:55:59;;;;;;;6.20;5.80;;;;;;;18.41;69.16;98925.81;4173761;28;20570;-56
2022/07/24 03:58:01;;;;;;;7.05;6.45;;;;;;;18.39;69.02;98933.56;4169296;28;20244;-56
2022/07/24 04:00:05;;;;;;;6.82;6.22;;;;;;;18.37;68.85;98929.41;4171842;28;20216;-57
2022/07/24 04:02:07;;;;;;;6.13;5.63;;;;;;;18.35;68.95;98931.66;4168354;28;20208;-57
2022/07/24 04:04:08;;;;;;;6.13;5.63;;;;;;;18.32;69.15;98932.25;4168824;28;20204;-54
2022/07/24 04:06:10;;;;;;;6.22;5.78;;;;;;;18.31;69.09;98927.84;4175749;28;20211;-54
2022/07/24 04:08:12;;;;;;;5.80;5.30;;;;;;;18.31;68.85;98930.59;4171543;28;20764;-56
2022/07/24 04:10:14;;;;;;;6.30;5.88;;;;;;;18.34;68.84;98930.00;4169282;28;20238;-55
2022/07/24 04:12:15;;;;;;;6.28;5.63;;;;;;;18.33;68.87;98934.72;4168178;28;20259;-54
2022/07/24 04:14:17;;;;;;;6.30;5.88;;;;;;;18.37;68.88;98932.19;4166478;28;20208;-57
2022/07/24 04:16:19;;;;;;;6.63;6.20;;;;;;;18.32;69.37;98937.78;4184485;28;20199;-57
2022/07/24 04:18:21;;;;;;;7.13;6.55;;;;;;;18.32;69.27;98937.78;4172332;28;20658;-55
2022/07/24 04:20:23;;;;;;;6.30;5.80;;;;;;;18.30;69.72;98938.06;4184749;28;20738;-56
2022/07/24 04:22:25;;;;;;;16.77;6.28;;;;;;;18.32;69.70;98933.06;4183120;28;20215;-56
2022/07/24 04:24:26;;;;;;;7.65;6.95;;;;;;;18.34;69.76;98938.31;4166969;28;20201;-55
2022/07/24 04:26:28;;;;;;;6.43;5.93;;;;;;;18.37;69.37;98934.97;4175117;28;20290;-54
2022/07/24 04:28:30;;;;;;;8.75;6.05;;;;;;;18.38;69.60;98931.09;4170350;28;20200;-55
2022/07/24 04:30:32;;;;;;;6.38;5.78;;;;;;;18.39;69.35;98933.56;4173938;28;20227;-55
2022/07/24 04:32:34;;;;;;;6.10;5.50;;;;;;;18.41;69.16;98930.50;4168921;28;20320;-56
2022/07/24 04:34:35;;;;;;;6.72;6.10;;;;;;;18.39;69.36;98932.75;4171259;28;20721;-55
2022/07/24 04:36:37;;;;;;;6.43;5.88;;;;;;;18.39;69.48;98932.75;4172334;28;20249;-55
2022/07/24 04:38:39;;;;;;;6.05;5.65;;;;;;;18.38;69.54;98939.41;4169320;28;20216;-55
2022/07/24 04:40:41;;;;;;;6.55;6.05;;;;;;;18.36;69.83;98938.84;4174823;28;20235;-55
2022/07/24 04:42:43;;;;;;;6.32;5.93;;;;;;;18.30;69.95;98935.31;4169483;28;20255;-54
2022/07/24 04:44:45;;;;;;;5.97;5.57;;;;;;;18.26;70.17;98934.19;4167735;28;20307;-56
2022/07/24 04:46:46;;;;;;;6.55;5.95;;;;;;;18.25;69.90;98926.19;4167702;28;20197;-56
2022/07/24 04:48:48;;;;;;;6.47;5.97;;;;;;;18.25;69.97;98938.06;4181457;28;20253;-57
2022/07/24 04:50:50;;;;;;;6.60;6.20;;;;;;;18.29;70.02;98938.31;4170466;28;20743;-56
2022/07/24 04:52:52;;;;;;;6.20;5.80;;;;;;;18.31;69.76;98942.50;4170379;28;20271;-55
2022/07/24 04:54:54;;;;;;;6.70;6.20;;;;;;;18.35;69.83;98937.19;4157767;28;20208;-54
2022/07/24 04:56:56;;;;;;;6.18;5.78;;;;;;;18.39;69.41;98943.84;4152378;28;20263;-55
2022/07/24 04:58:57;;;;;;;5.82;5.43;;;;;;;18.38;69.33;98943.00;4172369;28;20775;-56
2022/07/24 05:01:00;;;;;;;6.43;5.93;;;;;;;18.41;69.36;98952.66;4170673;28;20220;-56
2022/07/24 05:03:02;;;;;;;6.80;6.05;;;;;;;18.43;69.16;98947.66;4176095;28;20641;-56
2022/07/24 05:05:04;;;;;;;6.05;5.65;;;;;;;18.46;69.28;98944.31;4160055;28;20232;-56
2022/07/24 05:07:06;;;;;;;7.68;6.05;;;;;;;18.51;69.24;98958.16;4175972;28;20203;-55
2022/07/24 05:09:08;;;;;;;5.95;5.57;;;;;;;18.53;68.86;98950.34;4159522;28;20664;-56
2022/07/24 05:11:10;;;;;;;6.80;6.20;;;;;;;18.54;69.14;98949.22;4188311;28;20253;-55
2022/07/24 05:13:11;;;;;;;6.05;5.60;;;;;;;18.55;69.11;98953.66;4174357;28;20281;-53
2022/07/24 05:15:13;;;;;;;9.77;6.35;;;;;;;18.50;69.15;98945.38;4174491;28;20681;-54
2022/07/24 05:17:15;;;;;;;6.35;5.75;;;;;;;18.55;69.15;98948.94;4175512;28;20208;-56
2022/07/24 05:19:16;;;;;;;6.80;6.30;;;;;;;18.55;68.96;98950.88;4170189;28;20196;-56
2022/07/24 05:21:18;;;;;;;6.53;6.10;;;;;;;18.58;68.69;98944.78;4172525;28;20313;-55
2022/07/24 05:23:20;;;;;;;7.05;6.47;;;;;;;18.64;68.50;98951.94;4178455;28;20601;-56
2022/07/24 05:25:22;;;;;;;7.55;7.05;;;;;;;18.67;68.48;98951.34;4171650;28;20213;-55
2022/07/24 05:27:23;;;;;;;7.22;6.63;;;;;;;18.72;68.83;98945.75;4170023;28;20618;-55
2022/07/24 05:29:25;;;;;;;7.28;6.50;;;;;;;18.56;69.74;98945.06;4186984;28;20200;-55
2022/07/24 05:31:27;;;;;;;6.55;6.13;;;;;;;18.64;69.52;98957.47;4173951;28;20232;-56
2022/07/24 05:33:29;;;;;;;6.38;5.88;;;;;;;18.66;69.44;98955.22;4168524;28;20228;-59
2022/07/24 05:35:31;;;;;;;7.15;6.65;;;;;;;18.60;69.83;98945.31;4168367;28;20231;-55
2022/07/24 05:37:33;;;;;;;6.18;5.78;;;;;;;18.68;69.58;98955.75;4158087;28;20209;-54
2022/07/24 05:39:35;;;;;;;8.15;6.80;;;;;;;18.71;70.78;98952.41;4172059;28;20220;-55
2022/07/24 05:41:36;;;;;;;6.47;5.95;;;;;;;18.86;70.63;98949.50;4170788;28;20235;-55
2022/07/24 05:43:38;;;;;;;6.85;6.35;;;;;;;19.07;70.46;98949.00;4171442;28;20262;-55
2022/07/24 05:45:40;;;;;;;6.85;6.35;;;;;;;19.32;69.87;98953.44;4159498;28;20651;-56
2022/07/24 05:47:42;;;;;;;8.25;7.00;;;;;;;19.45;69.31;98955.50;4168279;28;20246;-55
2022/07/24 05:49:43;;;;;;;6.93;6.47;;;;;;;19.63;68.52;98954.69;4166912;28;20212;-54
2022/07/24 05:51:45;;;;;;;6.72;6.22;;;;;;;19.75;68.02;98957.88;4173919;28;20246;-53
2022/07/24 05:53:47;;;;;;;6.95;6.30;;;;;;;19.88;67.84;98960.75;4170014;28;20224;-53
2022/07/24 05:55:50;;;;;;;6.97;6.20;;;;;;;20.05;67.55;98969.41;4168778;28;20678;-56
2022/07/24 05:57:51;;;;;;;6.85;6.45;;;;;;;20.11;66.75;98957.09;4172126;28;20274;-57
2022/07/24 05:59:53;;;;;;;6.35;5.85;;;;;;;20.19;66.04;98958.38;4173230;28;20261;-56
2022/07/24 06:01:59;;;;;;;6.75;6.15;;;;;;;20.37;66.59;98961.13;4169442;28;20200;-56
2022/07/24 06:04:01;;;;;;;5.57;5.07;;;;;;;20.61;65.99;98966.59;4173308;28;20202;-57
2022/07/24 06:06:04;;;;;;;7.15;5.25;;;;;;;20.68;65.01;98955.88;4170580;28;20207;-55
2022/07/24 06:08:12;;;;;;;5.60;5.20;;;;;;;20.88;64.95;98966.69;4170624;28;20253;-54
2022/07/24 06:10:14;;;;;;;6.15;5.38;;;;;;;21.01;64.09;98971.47;4171447;28;21197;-57
2022/07/24 06:12:16;;;;;;;6.57;6.07;;;;;;;21.17;64.01;98970.06;4188184;28;20219;-53
2022/07/24 06:14:17;;;;;;;5.40;4.82;;;;;;;21.23;64.06;98968.84;4175193;28;20223;-55
2022/07/24 06:16:19;;;;;;;5.95;5.53;;;;;;;21.28;64.04;98965.94;4176462;28;20211;-55
2022/07/24 06:18:21;;;;;;;5.50;4.53;;;;;;;21.37;63.84;98966.88;4187676;28;20210;-54
2022/07/24 06:20:23;;;;;;;6.32;5.72;;;;;;;21.40;63.27;98964.31;4172566;28;20231;-54
2022/07/24 06:22:25;;;;;;;6.40;5.90;;;;;;;21.43;63.64;98960.88;4160098;28;20208;-55
2022/07/24 06:24:26;;;;;;;5.75;5.28;;;;;;;21.35;62.69;98958.00;4171307;28;20211;-55
2022/07/24 06:26:28;;;;;;;6.68;6.03;;;;;;;21.30;63.45;98953.34;4174691;28;20707;-56
2022/07/24 06:28:39;;;;;;;5.90;5.40;;;;;;;21.31;63.42;98948.63;4172446;28;20204;-55
2022/07/24 06:30:41;;;;;;;5.68;5.28;;;;;;;21.33;63.04;98954.69;4173937;28;20242;-54
2022/07/24 06:32:43;;;;;;;5.75;5.35;;;;;;;21.26;63.34;98955.13;4183422;28;20708;-56
2022/07/24 06:34:44;;;;;;;5.45;5.05;;;;;;;21.41;63.59;98948.41;4170010;28;20785;-55
2022/07/24 06:36:46;;;;;;;6.00;5.35;;;;;;;21.59;62.91;98953.03;4173997;28;20203;-55
2022/07/24 06:38:48;;;;;;;6.50;6.00;;;;;;;21.55;61.87;98950.06;4168643;28;20224;-53
2022/07/24 06:40:50;;;;;;;6.68;5.20;;;;;;;21.32;62.24;98956.66;4172500;28;20223;-55
2022/07/24 06:42:51;;;;;;;5.78;5.28;;;;;;;21.53;62.46;98952.34;4170737;28;20203;-54
2022/07/24 06:44:53;;;;;;;5.68;5.25;;;;;;;21.55;61.61;98949.22;4185428;28;20257;-56
2022/07/24 06:46:55;;;;;;;6.43;5.90;;;;;;;21.62;61.80;98955.19;4181668;28;20207;-55
2022/07/24 06:48:56;;;;;;;6.65;5.72;;;;;;;21.80;61.44;98948.72;4166376;28;20211;-55
2022/07/24 06:50:58;;;;;;;5.18;4.78;;;;;;;21.87;60.71;98947.16;4157671;28;20641;-55
2022/07/24 06:53:00;;;;;;;4.95;4.55;;;;;;;22.00;60.73;98951.06;4175115;28;20195;-55
2022/07/24 06:55:02;;;;;;;10.07;4.82;;;;;;;22.18;60.79;98942.53;4182786;28;20211;-55
2022/07/24 06:57:04;;;;;;;5.20;4.70;;;;;;;22.39;59.39;98948.44;4169659;28;20209;-56
2022/07/24 06:59:06;;;;;;;5.45;4.82;;;;;;;22.32;58.76;98948.06;4169545;28;20217;-56
2022/07/24 07:01:08;;;;;;;8.35;5.03;;;;;;;22.27;57.60;98946.22;4169791;28;20227;-55
2022/07/24 07:03:10;;;;;;;4.25;3.88;;;;;;;22.18;57.92;98944.50;4172414;28;20211;-55
2022/07/24 07:05:12;;;;;;;4.53;4.13;;;;;;;22.33;57.66;98946.91;4180761;28;20843;-55
2022/07/24 07:07:15;;;;;;;4.68;4.10;;;;;;;22.48;58.68;98941.00;4173646;28;20203;-53
2022/07/24 07:09:16;;;;;;;7.63;5.70;;;;;;;22.57;57.49;98951.06;4169842;28;20203;-54
2022/07/24 07:11:18;;;;;;;10.73;4.53;;;;;;;22.62;56.18;98950.13;4167611;28;20640;-53
2022/07/24 07:13:20;;;;;;;4.47;3.95;;;;;;;22.64;56.32;98956.22;4174224;28;20257;-54
2022/07/24 07:15:22;;;;;;;4.10;3.80;;;;;;;22.73;56.30;98945.94;4169669;28;20257;-54
2022/07/24 07:17:25;;;;;;;4.85;4.07;;;;;;;22.91;55.64;98956.09;4153002;28;20219;-54
2022/07/24 07:19:27;;;;;;;4.80;4.45;;;;;;;23.02;55.28;98951.84;4145217;28;20227;-55
2022/07/24 07:21:29;;;;;;;4.72;4.18;;;;;;;23.21;55.34;98955.28;4156122;28;20962;-53
2022/07/24 07:23:30;;;;;;;4.50;3.72;;;;;;;23.50;55.67;98958.38;4162682;28;20570;-53
2022/07/24 07:25:32;;;;;;;3.95;3.63;;;;;;;23.77;55.28;98954.19;4154022;28;20200;-53
2022/07/24 07:27:35;;;;;;;5.38;3.78;;;;;;;24.08;55.03;98954.94;4150343;28;20257;-56
2022/07/24 07:29:37;;;;;;;3.72;3.42;;;;;;;24.27;54.28;98951.84;4153958;28;20209;-53
2022/07/24 07:31:39;;;;;;;4.47;4.13;;;;;;;24.40;54.64;98946.06;4153576;28;20227;-53
2022/07/24 07:33:41;;;;;;;3.65;3.35;;;;;;;24.13;52.76;98951.97;4153171;28;20260;-53
2022/07/24 07:35:43;;;;;;;3.83;3.63;;;;;;;24.39;54.04;98950.00;4158552;28;20637;-54
2022/07/24 07:37:46;;;;;;;3.65;3.42;;;;;;;24.66;53.87;98946.91;4155367;28;20259;-53
2022/07/24 07:39:47;;;;;;;5.20;4.45;;;;;;;24.56;52.19;98944.44;4166405;28;20223;-54
2022/07/24 07:41:50;;;;;;;11.52;4.00;;;;;;;24.73;53.40;98943.59;4152261;28;20228;-54
2022/07/24 07:43:52;;;;;;;4.28;3.97;;;;;;;24.92;54.06;98938.47;4153033;28;20204;-53
2022/07/24 07:45:53;;;;;;;3.50;3.20;;;;;;;25.30;52.60;98936.53;4154093;28;20550;-53
2022/07/24 07:47:58;;;;;;;12.68;5.47;;;;;;;25.55;52.55;98944.88;4154169;28;20204;-53
2022/07/24 07:50:00;;;;;;;5.28;3.75;;;;;;;25.75;52.03;98946.91;4152484;28;20709;-54
2022/07/24 07:52:03;;;;;;;4.88;4.28;;;;;;;25.23;50.64;98945.50;4156036;28;20243;-53
2022/07/24 07:54:05;;;;;;;4.03;3.65;;;;;;;25.27;51.38;98949.25;4160050;28;20247;-55
2022/07/24 07:56:06;;;;;;;5.80;4.80;;;;;;;25.42;51.44;98943.09;4167974;28;20207;-54
2022/07/24 07:58:09;;;;;;;5.05;4.22;;;;;;;25.53;50.74;98941.56;4155120;28;20650;-53
2022/07/24 08:00:11;;;;;;;6.90;3.90;;;;;;;25.89;50.23;98935.47;4151669;28;20741;-54
2022/07/24 08:02:15;;;;;;;4.05;3.75;;;;;;;25.87;50.38;98941.38;4141561;28;20239;-53
2022/07/24 08:04:17;;;;;;;4.05;3.75;;;;;;;26.32;50.29;98950.81;4151799;28;20200;-55
2022/07/24 08:06:19;;;;;;;4.22;3.92;;;;;;;26.51;49.99;98942.75;4156459;28;20251;-53
2022/07/24 08:08:24;;;;;;;4.03;3.70;;;;;;;26.71;49.52;98944.75;4169136;28;20222;-55
2022/07/24 08:10:27;;;;;;;4.35;3.95;;;;;;;26.88;49.21;98946.56;4153039;28;20255;-55
2022/07/24 08:12:29;;;;;;;5.22;4.93;;;;;;;26.90;48.34;98942.25;4155313;28;20670;-55
2022/07/24 08:14:31;;;;;;;3.55;3.33;;;;;;;26.86;47.75;98949.72;4154027;28;20232;-55
2022/07/24 08:16:32;;;;;;;5.45;4.18;;;;;;;26.73;49.02;98942.41;4167512;28;20701;-55
2022/07/24 08:18:34;;;;;;;4.43;4.03;;;;;;;26.70;47.16;98945.91;4151663;28;20204;-55
2022/07/24 08:20:36;;;;;;;4.60;3.90;;;;;;;26.63;47.81;98944.81;4158139;28;20698;-54
2022/07/24 08:22:38;;;;;;;4.68;4.15;;;;;;;26.64;48.22;98938.88;4157271;28;20212;-55
2022/07/24 08:24:40;;;;;;;5.43;3.38;;;;;;;26.56;47.98;98942.56;4169865;28;20993;-53
2022/07/24 08:26:41;;;;;;;4.40;4.00;;;;;;;26.45;48.23;98935.69;4169387;28;20208;-54
2022/07/24 08:28:43;;;;;;;4.20;3.92;;;;;;;26.73;48.15;98935.97;4140883;28;20197;-54
2022/07/24 08:30:45;;;;;;;5.47;4.15;;;;;;;27.13;48.12;98935.03;4156961;28;20621;-56
2022/07/24 08:32:47;;;;;;;3.95;3.65;;;;;;;27.21;47.16;98934.16;4154770;28;20849;-55
2022/07/24 08:34:48;;;;;;;4.45;4.15;;;;;;;27.51;46.89;98938.41;4158012;28;20228;-55
2022/07/24 08:36:50;;;;;;;4.70;3.97;;;;;;;27.71;47.00;98939.50;4155066;28;20192;-56
2022/07/24 08:38:52;;;;;;;5.10;4.15;;;;;;;27.65;45.33;98935.28;4162108;28;20216;-55
2022/07/24 08:40:54;;;;;;;4.03;3.67;;;;;;;27.70;47.03;98938.66;4157415;28;20323;-53
2022/07/24 08:42:56;;;;;;;4.20;3.83;;;;;;;27.81;46.11;98934.25;4144355;28;20214;-53
2022/07/24 08:44:57;;;;;;;4.25;3.80;;;;;;;28.16;45.56;98929.72;4157426;28;20196;-53
2022/07/24 08:46:59;;;;;;;3.60;3.33;;;;;;;28.40;45.77;98934.53;4156286;28;20212;-52
2022/07/24 08:49:02;;;;;;;4.57;4.28;;;;;;;28.52;45.18;98923.22;4155436;28;20246;-52
2022/07/24 08:51:04;;;;;;;6.38;3.95;;;;;;;28.72;45.57;98925.81;4160734;28;21090;-53
2022/07/24 08:53:06;;;;;;;4.68;4.28;;;;;;;28.80;45.01;98922.06;4140018;28;20208;-53
2022/07/24 08:55:08;;;;;;;4.75;4.35;;;;;;;28.91;44.27;98923.16;4160253;28;20267;-54
2022/07/24 08:57:10;;;;;;;4.53;3.90;;;;;;;28.99;43.66;98929.84;4172638;28;20650;-52
2022/07/24 08:59:22;;;;;;;4.93;4.53;;;;;;;29.16;45.18;98929.50;4160070;28;20274;-53
2022/07/24 09:01:27;;;;;;;5.43;4.50;;;;;;;29.23;44.57;98930.53;4144337;28;20392;-54
2022/07/24 09:03:38;;;;;;;4.55;3.60;;;;;;;29.62;44.33;98926.75;4170273;28;20234;-52
2022/07/24 09:05:57;;;;;;;4.30;4.00;;;;;;;29.81;42.86;98929.66;4155744;28;20721;-53
2022/07/24 09:08:19;;;;;;;3.67;3.47;;;;;;;29.17;42.06;98917.88;4151642;28;20195;-53
2022/07/24 09:10:21;;;;;;;3.78;3.47;;;;;;;28.79;43.13;98920.38;4155790;28;20706;-52
2022/07/24 09:12:23;;;;;;;4.50;4.10;;;;;;;29.26;42.23;98912.88;4155728;28;20204;-52
2022/07/24 09:14:30;;;;;;;6.18;4.13;;;;;;;29.25;42.40;98914.03;4140429;28;20831;-53
2022/07/24 09:16:33;;;;;;;4.22;3.92;;;;;;;29.35;42.97;98915.50;4156775;28;20346;-53
2022/07/24 09:18:35;;;;;;;4.75;3.83;;;;;;;29.72;42.62;98920.53;4159094;28;20212;-53
2022/07/24 09:20:38;;;;;;;3.47;3.22;;;;;;;29.74;42.71;98912.53;4144984;28;20314;-53
2022/07/24 09:22:41;;;;;;;4.10;3.80;;;;;;;29.77;41.65;98911.00;4158550;28;20204;-54
2022/07/24 09:24:43;;;;;;;5.55;4.25;;;;;;;30.07;41.66;98910.13;4154870;28;20197;-52
2022/07/24 09:26:47;;;;;;;4.20;3.90;;;;;;;30.21;40.65;98904.81;4158765;28;20655;-52
2022/07/24 09:28:55;;;;;;;4.68;4.28;;;;;;;29.79;41.53;98915.06;4159643;28;20208;-52
2022/07/24 09:31:02;;;;;;;4.70;4.13;;;;;;;30.28;41.45;98904.16;4156537;28;20278;-53
2022/07/24 09:33:06;;;;;;;5.50;3.95;;;;;;;30.58;41.48;98906.03;4160988;28;20640;-52
2022/07/24 09:35:08;;;;;;;4.80;4.38;;;;;;;30.77;41.05;98906.06;4154081;28;20224;-53
2022/07/24 09:37:10;;;;;;;4.03;3.63;;;;;;;30.31;39.32;98904.22;4155352;28;20852;-53